Time;durP1;ratioP1;P1;durP2;ratioP2;P2;SDS_P1;SDS_P2;PMS_P1;PMS_P2;Temp;Humidity;BMP_temperature;BMP_pressure;BME280_temperature;BME280_humidity;BME280_pressure;Samples;Min_cycle;Max_cycle;Signal;HPM_P1;HPM_P2
2023/08/12 00:01:53;;;;;;;4.97;3.28;;;;;;;-145.00;56.69;73269.88;5054994;28;20037;-76
2023/08/12 00:04:19;;;;;;;4.53;3.65;;;;;;;-145.00;56.54;73269.88;5053662;28;20053;-76
2023/08/12 00:06:46;;;;;;;4.20;3.30;;;;;;;-145.00;56.41;73271.97;5053665;28;20041;-76
2023/08/12 00:09:14;;;;;;;6.32;3.60;;;;;;;-145.00;56.52;73271.97;5053076;28;20507;-76
2023/08/12 00:11:42;;;;;;;4.22;3.13;;;;;;;-145.00;56.55;73276.13;5053500;28;20048;-76
2023/08/12 00:14:09;;;;;;;4.93;3.05;;;;;;;-145.00;56.62;73280.28;5052677;28;20504;-76
2023/08/12 00:16:36;;;;;;;5.88;3.72;;;;;;;-145.00;56.59;73276.13;5054261;28;20040;-75
2023/08/12 00:19:03;;;;;;;5.60;3.63;;;;;;;-145.00;56.74;73282.38;5052880;28;20660;-75
2023/08/12 00:21:29;;;;;;;4.65;3.35;;;;;;;-145.00;56.99;73292.78;5052610;28;20055;-76
2023/08/12 00:23:56;;;;;;;3.97;3.42;;;;;;;-145.00;57.02;73292.78;5053255;28;20420;-76
2023/08/12 00:26:23;;;;;;;4.70;3.85;;;;;;;-145.00;57.00;73296.94;5052512;28;20448;-76
2023/08/12 00:28:51;;;;;;;6.63;4.05;;;;;;;-145.00;57.48;73301.13;5053315;28;20132;-76
2023/08/12 00:31:19;;;;;;;5.55;4.15;;;;;;;-145.00;57.24;73296.94;5052852;28;20041;-76
2023/08/12 00:33:45;;;;;;;9.10;3.85;;;;;;;-145.00;57.45;73303.19;5053226;28;20037;-76
2023/08/12 00:36:12;;;;;;;5.78;3.92;;;;;;;-145.00;57.64;73307.34;5052714;28;20041;-76
2023/08/12 00:38:38;;;;;;;4.55;3.65;;;;;;;-145.00;57.75;73313.59;5053748;28;20049;-76
2023/08/12 00:41:05;;;;;;;5.35;3.78;;;;;;;-145.00;58.65;73309.44;5053563;28;20041;-76
2023/08/12 00:43:32;;;;;;;6.72;4.25;;;;;;;-145.00;58.38;73309.44;5047694;28;20056;-76
2023/08/12 00:45:58;;;;;;;6.00;3.83;;;;;;;-145.00;58.48;73317.78;5065704;28;20047;-76
2023/08/12 00:48:29;;;;;;;4.72;4.00;;;;;;;-145.00;58.50;73336.50;5052096;28;20052;-76
2023/08/12 00:50:56;;;;;;;4.65;3.85;;;;;;;-145.00;58.99;73330.25;5053154;28;20608;-76
2023/08/12 00:53:22;;;;;;;5.28;3.70;;;;;;;-145.00;58.54;73330.25;5052272;28;20048;-76
2023/08/12 00:55:49;;;;;;;5.35;4.00;;;;;;;-145.00;58.74;73330.25;5052193;28;20049;-76
2023/08/12 00:58:17;;;;;;;5.00;3.50;;;;;;;-145.00;58.69;73334.44;5052935;28;20415;-76
2023/08/12 01:00:43;;;;;;;4.47;3.72;;;;;;;-145.00;58.71;73336.50;5054050;28;20421;-76
2023/08/12 01:03:11;;;;;;;5.88;4.00;;;;;;;-145.00;58.66;73336.50;5053086;28;20045;-76
2023/08/12 01:05:39;;;;;;;5.15;3.85;;;;;;;-145.00;58.79;73342.75;5053202;28;20041;-76
2023/08/12 01:08:06;;;;;;;5.43;3.95;;;;;;;-145.00;58.86;73342.75;5052665;28;20723;-76
2023/08/12 01:10:37;;;;;;;5.07;3.83;;;;;;;-145.00;59.21;73351.09;5052569;28;20051;-76
2023/08/12 01:13:14;;;;;;;6.88;3.83;;;;;;;-145.00;59.65;73371.91;5052546;28;20049;-76
2023/08/12 01:15:44;;;;;;;5.88;4.40;;;;;;;-145.00;60.35;73403.13;5052888;28;20049;-76
2023/08/12 01:18:12;;;;;;;7.40;4.32;;;;;;;-145.00;61.19;73426.03;5052266;28;20041;-76
2023/08/12 01:20:40;;;;;;;5.47;3.83;;;;;;;-145.00;60.70;73401.06;5052621;28;20045;-77
2023/08/12 01:23:12;;;;;;;5.55;4.47;;;;;;;-145.00;60.32;73388.56;5042043;28;20098;-76
2023/08/12 01:25:38;;;;;;;6.18;4.20;;;;;;;-145.00;60.32;73382.31;5067206;28;20106;-73
2023/08/12 01:28:06;;;;;;;5.35;4.30;;;;;;;-145.00;60.24;73380.22;5052599;28;20049;-76
2023/08/12 01:30:35;;;;;;;7.18;4.38;;;;;;;-145.00;59.96;73376.06;5052300;28;20049;-75
2023/08/12 01:33:11;;;;;;;5.13;4.18;;;;;;;-145.00;60.20;73384.41;5052053;28;20049;-74
2023/08/12 01:35:42;;;;;;;6.43;4.68;;;;;;;-145.00;60.20;73380.22;5052129;28;20044;-75
2023/08/12 01:38:23;;;;;;;6.30;4.70;;;;;;;-145.00;60.44;73376.06;5053311;28;20049;-75
2023/08/12 01:40:51;;;;;;;6.07;4.80;;;;;;;-145.00;60.64;73378.16;5046012;28;20420;-75
2023/08/12 01:43:18;;;;;;;6.63;4.93;;;;;;;-145.00;60.68;73374.00;5051372;28;20040;-75
2023/08/12 01:45:45;;;;;;;6.15;4.88;;;;;;;-145.00;60.55;73376.06;5052014;28;20044;-75
2023/08/12 01:48:11;;;;;;;6.32;4.32;;;;;;;-145.00;60.44;73376.06;5051603;28;20048;-76
2023/08/12 01:50:38;;;;;;;6.97;4.95;;;;;;;-145.00;60.24;73374.00;5051846;28;20053;-76
2023/08/12 01:53:05;;;;;;;7.53;5.00;;;;;;;-145.00;60.48;73380.22;5050919;28;20053;-76
2023/08/12 01:55:32;;;;;;;8.48;4.38;;;;;;;-145.00;60.45;73378.16;5051142;28;20049;-76
2023/08/12 01:57:59;;;;;;;6.13;4.45;;;;;;;-145.00;60.37;73380.22;5051236;28;20041;-76
2023/08/12 02:00:24;;;;;;;5.75;4.57;;;;;;;-145.00;60.52;73380.22;5051032;28;20041;-76
2023/08/12 02:02:51;;;;;;;6.45;4.95;;;;;;;-145.00;60.54;73380.22;5051431;28;20037;-76
2023/08/12 02:05:17;;;;;;;6.25;4.88;;;;;;;-145.00;60.38;73378.16;5050290;28;20059;-76
2023/08/12 02:07:44;;;;;;;7.15;4.80;;;;;;;-145.00;60.61;73384.41;5041768;28;20560;-76
2023/08/12 02:10:11;;;;;;;6.90;4.85;;;;;;;-145.00;60.63;73386.47;5049892;28;20065;-76
2023/08/12 02:12:39;;;;;;;7.05;4.53;;;;;;;-145.00;60.80;73388.56;5050708;28;20523;-77
2023/08/12 02:15:06;;;;;;;5.93;4.55;;;;;;;-145.00;61.08;73390.66;5050754;28;20041;-75
2023/08/12 02:17:33;;;;;;;6.53;4.90;;;;;;;-145.00;61.03;73390.66;5055194;28;20049;-75
2023/08/12 02:19:59;;;;;;;6.88;4.75;;;;;;;-145.00;61.26;73396.88;5054489;28;20053;-75
2023/08/12 02:22:26;;;;;;;6.20;5.53;;;;;;;-145.00;61.23;73401.06;5053227;28;20056;-74
2023/08/12 02:24:53;;;;;;;6.80;4.93;;;;;;;-145.00;61.10;73401.06;5054056;28;20073;-74
2023/08/12 02:27:19;;;;;;;6.80;5.55;;;;;;;-145.00;61.16;73392.72;5053053;28;20045;-74
2023/08/12 02:29:47;;;;;;;8.25;5.45;;;;;;;-145.00;60.93;73396.88;5050392;28;20065;-77
2023/08/12 02:32:13;;;;;;;6.78;5.15;;;;;;;-145.00;61.13;73401.06;5055179;28;20053;-77
2023/08/12 02:34:40;;;;;;;6.15;5.15;;;;;;;-145.00;61.27;73401.06;5053404;28;20048;-76
2023/08/12 02:37:06;;;;;;;6.80;5.50;;;;;;;-145.00;61.26;73401.06;5051111;28;20068;-76
2023/08/12 02:39:33;;;;;;;6.32;5.15;;;;;;;-145.00;61.33;73398.97;5050570;28;20051;-76
2023/08/12 02:41:59;;;;;;;7.28;5.72;;;;;;;-145.00;61.40;73398.97;5050378;28;20057;-76
2023/08/12 02:44:26;;;;;;;7.20;5.13;;;;;;;-145.00;61.40;73398.97;5049627;28;20048;-74
2023/08/12 02:46:54;;;;;;;7.20;5.50;;;;;;;-145.00;61.53;73398.97;5050950;28;20106;-76
2023/08/12 02:49:20;;;;;;;6.50;5.75;;;;;;;-145.00;61.77;73405.22;5049965;28;20407;-75
2023/08/12 02:51:47;;;;;;;7.20;5.55;;;;;;;-145.00;61.74;73396.88;5050118;28;20041;-75
2023/08/12 02:54:13;;;;;;;7.47;6.10;;;;;;;-145.00;61.93;73401.06;5049395;28;20060;-74
2023/08/12 02:56:40;;;;;;;8.73;6.25;;;;;;;-145.00;61.85;73396.88;5049606;28;20512;-75
2023/08/12 02:59:07;;;;;;;7.18;6.00;;;;;;;-145.00;62.08;73401.06;5048186;28;20055;-75
2023/08/12 03:01:33;;;;;;;7.85;6.10;;;;;;;-145.00;61.91;73398.97;5050042;28;20041;-75
2023/08/12 03:04:01;;;;;;;7.07;5.90;;;;;;;-145.00;62.10;73405.22;5049516;28;20048;-75
2023/08/12 03:06:27;;;;;;;6.93;5.97;;;;;;;-145.00;62.07;73411.47;5049285;28;20037;-75
2023/08/12 03:08:54;;;;;;;7.60;5.80;;;;;;;-145.00;62.09;73401.06;5049849;28;20051;-75
2023/08/12 03:11:20;;;;;;;7.45;5.63;;;;;;;-145.00;62.32;73407.31;5049018;28;20052;-74
2023/08/12 03:13:47;;;;;;;7.95;6.00;;;;;;;-145.00;61.84;73405.22;5049433;28;20041;-75
2023/08/12 03:16:14;;;;;;;7.35;5.65;;;;;;;-145.00;62.14;73409.38;5049588;28;20045;-77
2023/08/12 03:18:41;;;;;;;7.55;6.10;;;;;;;-145.00;62.10;73409.38;5049841;28;20041;-76
2023/08/12 03:21:09;;;;;;;7.75;5.97;;;;;;;-145.00;62.00;73413.53;5049642;28;20037;-76
2023/08/12 03:23:37;;;;;;;7.80;5.13;;;;;;;-145.00;62.01;73415.63;5049060;28;20045;-74
2023/08/12 03:26:04;;;;;;;6.22;5.35;;;;;;;-145.00;62.12;73413.53;5049391;28;20144;-75
2023/08/12 03:28:31;;;;;;;7.35;5.88;;;;;;;-145.00;62.51;73417.72;5049394;28;20065;-74
2023/08/12 03:30:57;;;;;;;7.97;6.20;;;;;;;-145.00;62.41;73413.53;5049201;28;20040;-75
2023/08/12 03:33:24;;;;;;;7.00;5.53;;;;;;;-145.00;62.40;73417.72;5048767;28;20535;-75
2023/08/12 03:35:51;;;;;;;7.07;6.00;;;;;;;-145.00;62.47;73417.72;5049584;28;20044;-76
2023/08/12 03:38:18;;;;;;;8.38;6.03;;;;;;;-145.00;62.40;73417.72;5049254;28;20069;-75
2023/08/12 03:40:45;;;;;;;7.53;6.22;;;;;;;-145.00;62.75;73430.19;5049521;28;20043;-76
2023/08/12 03:43:12;;;;;;;9.20;6.10;;;;;;;-145.00;62.80;73438.53;5048879;28;20398;-76
2023/08/12 03:45:41;;;;;;;7.60;6.20;;;;;;;-145.00;63.21;73434.38;5049484;28;20068;-76
2023/08/12 03:48:08;;;;;;;8.73;6.15;;;;;;;-145.00;63.12;73442.69;5049165;28;20053;-75
2023/08/12 03:50:35;;;;;;;7.70;5.60;;;;;;;-145.00;63.18;73457.28;5049535;28;20049;-76
2023/08/12 03:53:02;;;;;;;7.60;5.90;;;;;;;-145.00;62.87;73446.84;5048868;28;20049;-74
2023/08/12 03:55:32;;;;;;;9.02;6.53;;;;;;;-145.00;63.12;73451.03;5048985;28;20044;-76
2023/08/12 03:57:58;;;;;;;7.80;5.90;;;;;;;-145.00;63.32;73444.78;5049753;28;20045;-76
2023/08/12 04:00:25;;;;;;;9.20;5.80;;;;;;;-145.00;63.29;73448.94;5049408;28;20041;-76
2023/08/12 04:02:51;;;;;;;9.70;6.43;;;;;;;-145.00;63.36;73451.03;5049520;28;20447;-76
2023/08/12 04:05:18;;;;;;;7.30;5.93;;;;;;;-145.00;63.17;73453.09;5049114;28;20714;-73
2023/08/12 04:07:44;;;;;;;8.25;6.00;;;;;;;-145.00;63.42;73463.50;5049822;28;20045;-74
2023/08/12 04:10:11;;;;;;;6.13;5.03;;;;;;;-145.00;63.44;73467.69;5049287;28;20037;-74
2023/08/12 04:12:41;;;;;;;8.23;5.93;;;;;;;-145.00;63.58;73463.50;5048505;28;20045;-74
2023/08/12 04:15:08;;;;;;;9.48;5.82;;;;;;;-145.00;63.89;73480.16;5048800;28;20051;-74
2023/08/12 04:17:35;;;;;;;7.78;6.10;;;;;;;-145.00;64.01;73463.50;5048777;28;20047;-74
2023/08/12 04:20:03;;;;;;;6.75;6.00;;;;;;;-145.00;63.93;73459.34;5048842;28;20539;-75
2023/08/12 04:22:29;;;;;;;7.47;5.82;;;;;;;-145.00;63.70;73459.34;5048669;28;20515;-75
2023/08/12 04:24:56;;;;;;;7.70;5.95;;;;;;;-145.00;63.65;73459.34;5049350;28;20051;-74
2023/08/12 04:27:22;;;;;;;8.50;5.53;;;;;;;-145.00;63.78;73465.59;5049158;28;20040;-74
2023/08/12 04:29:50;;;;;;;8.55;5.85;;;;;;;-145.00;64.24;73461.44;5050354;28;20496;-76
2023/08/12 04:32:17;;;;;;;8.57;5.65;;;;;;;-145.00;63.97;73459.34;5052905;28;20132;-76
2023/08/12 04:34:43;;;;;;;7.88;5.95;;;;;;;-145.00;63.94;73461.44;5053105;28;20170;-76
2023/08/12 04:37:10;;;;;;;7.30;6.03;;;;;;;-145.00;63.94;73463.50;5052208;28;20045;-75
2023/08/12 04:39:36;;;;;;;9.98;5.95;;;;;;;-145.00;64.13;73461.44;5052581;28;20045;-76
2023/08/12 04:42:03;;;;;;;8.18;5.90;;;;;;;-145.00;63.87;73457.28;5051833;28;20048;-75
2023/08/12 04:44:29;;;;;;;9.20;6.15;;;;;;;-145.00;63.83;73459.34;5052412;28;20049;-76
2023/08/12 04:46:57;;;;;;;7.60;6.00;;;;;;;-145.00;64.13;73455.19;5052459;28;20041;-76
2023/08/12 04:49:25;;;;;;;8.27;5.93;;;;;;;-145.00;64.23;73451.03;5051904;28;20052;-76
2023/08/12 04:51:52;;;;;;;8.60;5.78;;;;;;;-145.00;64.03;73446.84;5052106;28;20049;-76
2023/08/12 04:54:18;;;;;;;7.28;5.80;;;;;;;-145.00;63.88;73446.84;5051827;28;20049;-76
2023/08/12 04:56:45;;;;;;;8.63;5.72;;;;;;;-145.00;64.00;73440.63;5051886;28;20045;-75
2023/08/12 04:59:11;;;;;;;7.10;5.82;;;;;;;-145.00;63.83;73436.44;5051760;28;20072;-76
2023/08/12 05:01:38;;;;;;;7.60;5.90;;;;;;;-145.00;63.90;73434.38;5051329;28;20045;-76
2023/08/12 05:04:06;;;;;;;7.28;5.80;;;;;;;-145.00;63.85;73430.19;5051490;28;20140;-76
2023/08/12 05:06:33;;;;;;;6.40;5.60;;;;;;;-145.00;64.26;73432.28;5052091;28;20048;-76
2023/08/12 05:08:59;;;;;;;7.93;5.90;;;;;;;-145.00;64.40;73421.88;5052070;28;20063;-76
2023/08/12 05:11:26;;;;;;;7.63;6.22;;;;;;;-145.00;64.65;73438.53;5051608;28;20041;-76
2023/08/12 05:13:52;;;;;;;9.63;6.55;;;;;;;-145.00;64.63;73434.38;5051693;28;20416;-77
2023/08/12 05:16:19;;;;;;;8.00;6.13;;;;;;;-145.00;64.23;73413.53;5051476;28;20072;-77
2023/08/12 05:18:45;;;;;;;7.63;5.50;;;;;;;-145.00;64.01;73405.22;5052013;28;20045;-77
2023/08/12 05:21:13;;;;;;;7.45;5.78;;;;;;;-145.00;63.93;73392.72;5051194;28;20132;-76
2023/08/12 05:23:40;;;;;;;7.28;5.82;;;;;;;-145.00;63.91;73382.31;5050916;28;20058;-77
2023/08/12 05:26:06;;;;;;;6.25;5.38;;;;;;;-145.00;63.84;73374.00;5049125;28;20049;-78
2023/08/12 05:28:33;;;;;;;7.43;5.60;;;;;;;-145.00;63.64;73374.00;5049597;28;20412;-78
2023/08/12 05:30:59;;;;;;;7.70;6.03;;;;;;;-145.00;63.45;73361.50;5051568;28;20041;-81
2023/08/12 05:33:25;;;;;;;8.00;6.07;;;;;;;-145.00;63.45;73371.91;5051085;28;20045;-78
2023/08/12 05:35:52;;;;;;;8.48;5.60;;;;;;;-145.00;63.38;73367.75;5047724;28;20049;-73
2023/08/12 05:38:20;;;;;;;8.02;6.13;;;;;;;-145.00;63.14;73359.41;5044021;28;20052;-74
2023/08/12 05:40:47;;;;;;;7.95;6.10;;;;;;;-145.00;63.09;73346.91;5046572;28;20044;-74
2023/08/12 05:43:14;;;;;;;8.57;5.88;;;;;;;-145.00;63.14;73346.91;5046833;28;20049;-75
2023/08/12 05:45:41;;;;;;;7.85;6.15;;;;;;;-145.00;63.06;73334.44;5048001;28;20041;-75
2023/08/12 05:48:09;;;;;;;7.55;5.53;;;;;;;-145.00;63.21;73332.34;5046855;28;20627;-74
2023/08/12 05:50:35;;;;;;;7.40;5.95;;;;;;;-145.00;63.13;73321.94;5048041;28;20515;-73
2023/08/12 05:53:01;;;;;;;10.35;6.22;;;;;;;-145.00;62.89;73311.53;5050271;28;20045;-72
2023/08/12 05:55:29;;;;;;;7.57;5.93;;;;;;;-145.00;62.75;73292.78;5050979;28;20041;-72
2023/08/12 05:57:56;;;;;;;8.25;5.90;;;;;;;-145.00;62.94;73299.03;5050574;28;20037;-73
2023/08/12 06:00:22;;;;;;;8.05;5.80;;;;;;;-145.00;62.86;73292.78;5050402;28;20045;-73
2023/08/12 06:02:49;;;;;;;7.60;5.65;;;;;;;-145.00;62.86;73276.13;5049476;28;20523;-73
2023/08/12 06:05:15;;;;;;;7.40;5.85;;;;;;;-145.00;62.68;73271.97;5049578;28;20607;-72
2023/08/12 06:07:42;;;;;;;9.57;6.57;;;;;;;-145.00;62.49;73263.63;5050131;28;20041;-72
2023/08/12 06:10:09;;;;;;;10.73;6.40;;;;;;;-145.00;62.76;73263.63;5048506;28;20037;-72
2023/08/12 06:12:37;;;;;;;8.68;6.20;;;;;;;-145.00;62.71;73242.81;5050725;28;20045;-72
2023/08/12 06:15:04;;;;;;;8.45;6.32;;;;;;;-145.00;62.66;73238.66;5050477;28;20521;-73
2023/08/12 06:17:31;;;;;;;9.00;5.15;;;;;;;-145.00;62.34;73222.00;5050437;28;20049;-73
2023/08/12 06:19:57;;;;;;;6.40;5.38;;;;;;;-145.00;61.99;73211.59;5049955;28;20045;-73
2023/08/12 06:22:24;;;;;;;9.63;5.25;;;;;;;-145.00;61.93;73184.53;5050581;28;20048;-72
2023/08/12 06:24:50;;;;;;;7.15;4.65;;;;;;;-145.00;61.57;73188.69;5049044;28;20492;-73
2023/08/12 06:27:19;;;;;;;7.00;5.47;;;;;;;-145.00;61.04;73176.19;5030070;28;20049;-73
2023/08/12 06:29:47;;;;;;;6.55;5.03;;;;;;;-145.00;60.82;73163.72;5044211;28;20056;-73
2023/08/12 06:32:14;;;;;;;6.57;5.20;;;;;;;-145.00;60.43;73157.47;5050120;28;20409;-73
2023/08/12 06:34:41;;;;;;;7.30;4.90;;;;;;;-145.00;60.14;73142.88;5050155;28;20455;-73
2023/08/12 06:37:07;;;;;;;6.65;4.80;;;;;;;-145.00;60.12;73147.06;5049794;28;20045;-73
2023/08/12 06:39:34;;;;;;;5.28;4.55;;;;;;;-145.00;60.29;73130.41;5051655;28;20037;-73
2023/08/12 06:42:00;;;;;;;5.57;4.13;;;;;;;-145.00;59.97;73109.56;5051214;28;20159;-73
2023/08/12 06:44:27;;;;;;;6.90;4.28;;;;;;;-145.00;59.32;73092.91;5050458;28;20037;-73
2023/08/12 06:46:55;;;;;;;7.47;4.68;;;;;;;-145.00;59.02;73072.09;5050734;28;20386;-73
2023/08/12 06:49:21;;;;;;;6.05;4.97;;;;;;;-145.00;59.19;73059.59;5051226;28;20044;-72
2023/08/12 06:51:48;;;;;;;6.60;4.80;;;;;;;-145.00;58.33;73038.78;5049701;28;20044;-73
2023/08/12 06:54:14;;;;;;;8.38;4.22;;;;;;;-145.00;58.29;73038.78;5048975;28;20041;-73
2023/08/12 06:56:41;;;;;;;5.97;4.25;;;;;;;-145.00;57.80;73017.97;5041799;28;20061;-73
2023/08/12 06:59:07;;;;;;;6.55;4.47;;;;;;;-145.00;57.95;72997.16;5029774;28;20561;-73
2023/08/12 07:01:34;;;;;;;8.18;4.70;;;;;;;-145.00;58.18;73013.81;5044335;28;20041;-73
2023/08/12 07:04:01;;;;;;;6.03;4.43;;;;;;;-145.00;57.71;72988.81;5050593;28;20053;-73
2023/08/12 07:06:28;;;;;;;6.00;4.80;;;;;;;-145.00;56.88;72988.81;5049758;28;20040;-73
2023/08/12 07:08:55;;;;;;;4.95;4.00;;;;;;;-145.00;57.42;72965.94;5049782;28;20043;-73
2023/08/12 07:11:22;;;;;;;6.82;4.57;;;;;;;-145.00;56.53;72955.50;5049193;28;20057;-73
2023/08/12 07:13:48;;;;;;;5.07;3.88;;;;;;;-145.00;57.21;72963.84;5049898;28;20079;-73
2023/08/12 07:16:15;;;;;;;5.40;4.07;;;;;;;-145.00;56.79;72930.53;5049457;28;20045;-73
2023/08/12 07:18:41;;;;;;;7.22;3.65;;;;;;;-145.00;56.88;72920.13;5049728;28;20049;-73
2023/08/12 07:21:09;;;;;;;6.55;4.07;;;;;;;-145.00;56.64;72895.16;5048802;28;20045;-73
2023/08/12 07:23:36;;;;;;;5.57;3.58;;;;;;;-145.00;55.53;72859.75;5050182;28;20063;-73
2023/08/12 07:26:02;;;;;;;8.88;3.97;;;;;;;-145.00;54.42;72834.78;5050365;28;20040;-73
2023/08/12 07:28:29;;;;;;;4.82;3.28;;;;;;;-145.00;54.24;72803.53;5051820;28;20512;-73
2023/08/12 07:30:55;;;;;;;4.25;3.30;;;;;;;-145.00;54.49;72778.56;5052221;28;20408;-73
2023/08/12 07:33:22;;;;;;;6.45;3.60;;;;;;;-145.00;54.11;72757.75;5050072;28;20053;-73
2023/08/12 07:35:48;;;;;;;4.88;3.80;;;;;;;-145.00;53.38;72772.31;5049845;28;20052;-73
2023/08/12 07:38:16;;;;;;;7.47;3.55;;;;;;;-145.00;53.80;72801.47;5049332;28;20049;-73
2023/08/12 07:40:43;;;;;;;5.03;3.20;;;;;;;-145.00;52.74;72749.41;5049379;28;20041;-73
2023/08/12 07:43:09;;;;;;;4.32;3.40;;;;;;;-145.00;52.34;72697.38;5049103;28;20052;-73
2023/08/12 07:45:36;;;;;;;4.18;3.05;;;;;;;-145.00;51.57;72659.91;5049648;28;20060;-73
2023/08/12 07:48:02;;;;;;;5.18;3.10;;;;;;;-145.00;49.15;72601.63;5049178;28;20492;-74
2023/08/12 07:50:29;;;;;;;4.20;2.50;;;;;;;-145.00;47.18;72545.41;5049068;28;20048;-73
2023/08/12 07:52:55;;;;;;;4.25;2.90;;;;;;;-145.00;46.15;72503.78;5049412;28;20037;-73
2023/08/12 07:55:23;;;;;;;3.92;2.80;;;;;;;-145.00;46.59;72464.22;5048793;28;20056;-73
2023/08/12 07:57:49;;;;;;;4.82;3.13;;;;;;;-145.00;47.26;72426.75;5045506;28;20045;-73
2023/08/12 08:00:16;;;;;;;5.43;3.38;;;;;;;-145.00;45.71;72364.31;5048573;28;20041;-73
2023/08/12 08:02:43;;;;;;;7.22;2.78;;;;;;;-145.00;45.54;72356.00;5049221;28;20516;-73
2023/08/12 08:05:09;;;;;;;4.30;2.90;;;;;;;-145.00;43.24;72341.41;5049848;28;20044;-74
2023/08/12 08:07:36;;;;;;;5.13;3.05;;;;;;;-145.00;44.30;72297.72;5053095;28;20045;-74
2023/08/12 08:10:02;;;;;;;4.03;3.08;;;;;;;-145.00;42.62;72291.47;5052832;28;20049;-73
2023/08/12 08:12:30;;;;;;;4.68;2.85;;;;;;;-145.00;41.69;72264.41;5052872;28;20051;-73
2023/08/12 08:14:57;;;;;;;3.95;2.70;;;;;;;-145.00;43.03;72229.03;5053226;28;20545;-73
2023/08/12 08:17:23;;;;;;;4.40;2.80;;;;;;;-145.00;41.56;72264.41;5052778;28;20043;-73
2023/08/12 08:19:50;;;;;;;3.03;2.55;;;;;;;-145.00;41.94;72260.25;5052970;28;20051;-73
2023/08/12 08:22:16;;;;;;;3.13;2.67;;;;;;;-145.00;42.39;72314.38;5051700;28;20505;-73
2023/08/12 08:24:44;;;;;;;3.28;2.67;;;;;;;-145.00;42.14;72239.44;5052722;28;20049;-74
2023/08/12 08:27:10;;;;;;;4.18;3.05;;;;;;;-145.00;42.11;72251.91;5033009;28;20049;-73
2023/08/12 08:29:38;;;;;;;4.38;2.80;;;;;;;-145.00;42.44;72220.69;5032925;28;20051;-73
2023/08/12 08:32:06;;;;;;;4.50;3.00;;;;;;;-145.00;41.46;72201.97;5047633;28;20055;-74
2023/08/12 08:34:32;;;;;;;4.22;2.97;;;;;;;-145.00;40.31;72112.47;5052598;28;20051;-73
2023/08/12 08:36:59;;;;;;;3.47;2.38;;;;;;;-145.00;39.07;72060.44;5052049;28;20725;-73
2023/08/12 08:39:26;;;;;;;3.97;2.78;;;;;;;-145.00;38.89;72039.63;5051762;28;20033;-73
2023/08/12 08:41:55;;;;;;;7.28;3.90;;;;;;;-145.00;41.97;72254.00;5052350;28;20048;-74
2023/08/12 08:44:23;;;;;;;3.88;3.15;;;;;;;-145.00;40.81;72093.72;5051949;28;20506;-74
2023/08/12 08:46:53;;;;;;;5.65;3.30;;;;;;;-145.00;39.63;72043.78;5052757;28;20072;-73
2023/08/12 08:49:21;;;;;;;4.72;3.22;;;;;;;-145.00;39.71;72016.72;5052065;28;20064;-74
2023/08/12 08:51:48;;;;;;;8.95;3.17;;;;;;;-145.00;38.44;71993.81;5052749;28;20048;-73
2023/08/12 08:54:16;;;;;;;4.85;3.50;;;;;;;-145.00;38.77;72070.84;5053137;28;20048;-73
2023/08/12 08:56:42;;;;;;;7.13;3.38;;;;;;;-145.00;38.92;72014.63;5053511;28;20044;-73
2023/08/12 08:59:09;;;;;;;4.88;3.30;;;;;;;-145.00;37.81;72043.78;5052344;28;20069;-73
2023/08/12 09:01:37;;;;;;;4.35;2.88;;;;;;;-145.00;39.17;71956.38;5052201;28;20045;-73
2023/08/12 09:04:06;;;;;;;6.20;2.92;;;;;;;-145.00;38.33;71914.72;5051791;28;20040;-73
2023/08/12 09:06:33;;;;;;;3.38;2.70;;;;;;;-145.00;37.91;71883.50;5052390;28;20045;-74
2023/08/12 09:09:02;;;;;;;4.22;2.78;;;;;;;-145.00;38.00;71881.44;5051538;28;20785;-74
2023/08/12 09:11:28;;;;;;;3.47;2.35;;;;;;;-145.00;36.78;71860.63;5051763;28;20128;-74
2023/08/12 09:13:55;;;;;;;3.20;2.75;;;;;;;-145.00;38.17;71821.06;5051751;28;20049;-74
2023/08/12 09:16:22;;;;;;;4.43;2.70;;;;;;;-145.00;36.18;71794.03;5050802;28;20060;-74
2023/08/12 09:18:54;;;;;;;4.55;2.58;;;;;;;-145.00;36.22;71781.53;5051376;28;20424;-74
2023/08/12 09:21:22;;;;;;;6.82;2.90;;;;;;;-145.00;36.03;71762.81;5031401;28;20049;-73
2023/08/12 09:23:49;;;;;;;4.30;2.55;;;;;;;-145.00;35.30;71785.69;5031618;28;20053;-74
2023/08/12 09:26:17;;;;;;;4.18;2.50;;;;;;;-145.00;36.39;71744.06;5038626;28;20041;-75
2023/08/12 09:28:44;;;;;;;3.15;2.22;;;;;;;-145.00;34.31;71704.53;5031703;28;20037;-75
2023/08/12 09:31:23;;;;;;;2.90;2.30;;;;;;;-145.00;34.71;71706.63;5050746;28;20044;-75
2023/08/12 09:33:50;;;;;;;3.45;2.30;;;;;;;-145.00;35.08;71752.41;5051426;28;20109;-73
2023/08/12 09:36:16;;;;;;;3.05;2.30;;;;;;;-145.00;35.71;71816.91;5051430;28;20049;-74
2023/08/12 09:38:47;;;;;;;3.47;2.50;;;;;;;-145.00;36.70;71866.88;5052641;28;20048;-73
2023/08/12 09:41:14;;;;;;;3.83;2.50;;;;;;;-145.00;37.10;71889.75;5055133;28;20051;-75
2023/08/12 09:43:42;;;;;;;3.10;2.53;;;;;;;-145.00;38.16;71881.44;5055308;28;20075;-73
2023/08/12 09:46:12;;;;;;;3.45;2.45;;;;;;;-145.00;37.61;71902.25;5057376;28;20646;-74
2023/08/12 09:48:38;;;;;;;3.80;2.53;;;;;;;-145.00;37.29;71910.56;5056703;28;20045;-73
2023/08/12 09:51:05;;;;;;;5.13;2.50;;;;;;;-145.00;37.50;71943.88;5055780;28;20044;-74
2023/08/12 09:53:33;;;;;;;4.00;2.97;;;;;;;-145.00;38.82;71989.66;5053649;28;20048;-74
2023/08/12 09:56:06;;;;;;;3.47;2.58;;;;;;;-145.00;38.74;71985.50;5040831;28;20516;-74
2023/08/12 09:58:35;;;;;;;3.35;2.60;;;;;;;-145.00;38.78;71991.75;5043761;28;20548;-74
2023/08/12 10:01:03;;;;;;;4.32;2.70;;;;;;;-145.00;39.05;71981.34;5050396;28;20053;-74
2023/08/12 10:03:30;;;;;;;3.85;2.45;;;;;;;-145.00;39.16;72089.56;5050873;28;20045;-74
2023/08/12 10:05:58;;;;;;;4.55;2.70;;;;;;;-145.00;38.70;72056.25;5051360;28;20044;-75
2023/08/12 10:08:25;;;;;;;5.38;2.80;;;;;;;-145.00;39.32;72106.22;5050999;28;20413;-74
2023/08/12 10:10:52;;;;;;;4.60;2.80;;;;;;;-145.00;38.94;72064.59;5050392;28;20037;-74
2023/08/12 10:13:21;;;;;;;3.22;2.80;;;;;;;-145.00;39.05;72054.19;5050300;28;20045;-74
2023/08/12 10:15:48;;;;;;;3.97;2.50;;;;;;;-145.00;39.16;72014.63;5050973;28;20045;-74
2023/08/12 10:18:16;;;;;;;5.25;2.60;;;;;;;-145.00;38.34;72014.63;5050242;28;20107;-72
2023/08/12 10:20:44;;;;;;;4.15;2.30;;;;;;;-145.00;39.10;72058.34;5050590;28;20053;-74
2023/08/12 10:23:16;;;;;;;4.35;2.40;;;;;;;-145.00;38.02;71975.09;5050183;28;20055;-73
2023/08/12 10:25:44;;;;;;;6.53;2.72;;;;;;;-145.00;37.92;71920.97;5036938;28;20053;-74
2023/08/12 10:28:11;;;;;;;6.35;2.97;;;;;;;-145.00;37.22;71856.47;5029689;28;20525;-74
2023/08/12 10:30:41;;;;;;;3.45;2.75;;;;;;;-145.00;37.36;71962.59;5044846;28;20041;-74
2023/08/12 10:33:08;;;;;;;3.78;2.90;;;;;;;-145.00;38.36;72002.16;5050210;28;20049;-74
2023/08/12 10:35:44;;;;;;;3.78;3.10;;;;;;;-145.00;37.94;71904.31;5051180;28;20051;-74
2023/08/12 10:38:14;;;;;;;3.65;2.92;;;;;;;-145.00;38.13;71877.28;5051026;28;20052;-75
2023/08/12 10:40:40;;;;;;;4.35;3.15;;;;;;;-145.00;39.40;71960.53;5051561;28;20044;-74
2023/08/12 10:43:07;;;;;;;3.10;2.63;;;;;;;-145.00;39.07;72010.47;5052628;28;20055;-74
2023/08/12 10:45:48;;;;;;;4.53;3.10;;;;;;;-145.00;38.74;72010.47;5053033;28;20037;-73
2023/08/12 10:48:20;;;;;;;6.55;3.25;;;;;;;-145.00;40.10;72056.25;5053390;28;20439;-75
2023/08/12 10:50:49;;;;;;;4.78;3.10;;;;;;;-145.00;39.12;72060.44;5052978;28;20044;-75
2023/08/12 10:53:29;;;;;;;8.07;2.80;;;;;;;-145.00;40.32;72039.63;5052456;28;20514;-74
2023/08/12 10:55:57;;;;;;;5.07;2.80;;;;;;;-145.00;39.18;72031.28;5039390;28;20042;-75
2023/08/12 10:58:30;;;;;;;4.45;3.17;;;;;;;-145.00;39.88;72052.09;5034927;28;20103;-75
2023/08/12 11:00:59;;;;;;;5.40;3.10;;;;;;;-145.00;41.15;71983.41;5036367;28;20041;-73
2023/08/12 11:03:25;;;;;;;3.97;2.63;;;;;;;-145.00;39.67;71910.56;5049745;28;20053;-73
2023/08/12 11:05:55;;;;;;;3.78;3.20;;;;;;;-145.00;38.79;71937.63;5051001;28;20041;-74
2023/08/12 11:08:25;;;;;;;4.00;3.40;;;;;;;-145.00;38.13;71910.56;5050806;28;20045;-73
2023/08/12 11:10:54;;;;;;;4.88;3.28;;;;;;;-145.00;38.07;71821.06;5051209;28;20045;-73
2023/08/12 11:13:21;;;;;;;4.95;3.08;;;;;;;-145.00;37.59;71769.03;5055253;28;20052;-74
2023/08/12 11:15:49;;;;;;;4.93;2.70;;;;;;;-145.00;36.51;71733.66;5052388;28;20045;-73
2023/08/12 11:18:19;;;;;;;3.75;2.85;;;;;;;-145.00;38.09;71775.28;5054325;28;20049;-73